Pays
Station

 

Conditions  météo  pour  Kirkenes Lufthavn  -  Norvège    Norvège

  
-4 °C
    
 
 

METAR pour Kirkenes Lufthavn :

ENKR 191120Z 22009KT 9999 FEW015 SCT025 M04/M07 Q1029 RMK WIND 731FT 22014KT

 

Voici le bulletin pour Kirkenes Lufthavn - Norvège.
 
Le bulletin a été fait il y a 7 minutes, à 11:20 UTC .
Le vent soufflait à la vitesse de 4.6 mètres par seconde de Sud-ouest (220°).
 
La température était de -4 °C, avec un point de rosée à -7 °C.
La température ressentie était de -10 °C.
 
La pression atmosphérique était de 1029 hPa.
L'humidité relative était de 79.5%.
 
Il y avait 1 à 2/8ème de nébulosité à une hauteur de 457 mètres et 3 à 4/8ème de nébulosité à une hauteur de 762 mètres.
 
La visibilité globale était de supérieure à 10 kilomètres.
 

 
 
 

Pays :   A   B   C   D   E   F   G   H   I   J   K   L   M   N   O   P   Q   R   S   T   U   V   W   Y   Z

 

Partenaires :  Info Météo avec Met'info
Météo Marine avec MeteoMarine.net
Infos Site  |  Infos Légales  |  Crédits  |  Confidentialité
Contactez-nous  |  Ajouter aux favoris
© 2013-2018 METAR - Tous droits réservés